sensor_id;sensor_type;location;lat;lon;timestamp;P1;durP1;ratioP1;P2;durP2;ratioP2
3405;SDS011;10008;48.682;9.016;2023-12-20T00:00:57;10.90;;;10.10;;
3405;SDS011;10008;48.682;9.016;2023-12-20T00:03:22;11.17;;;10.37;;
3405;SDS011;10008;48.682;9.016;2023-12-20T00:05:49;10.30;;;9.60;;
3405;SDS011;10008;48.682;9.016;2023-12-20T00:08:15;10.50;;;9.80;;
3405;SDS011;10008;48.682;9.016;2023-12-20T00:10:40;11.10;;;10.30;;
3405;SDS011;10008;48.682;9.016;2023-12-20T00:13:06;10.67;;;9.97;;
3405;SDS011;10008;48.682;9.016;2023-12-20T00:15:33;10.23;;;9.53;;
3405;SDS011;10008;48.682;9.016;2023-12-20T00:17:59;11.20;;;10.30;;
3405;SDS011;10008;48.682;9.016;2023-12-20T00:20:26;11.03;;;10.33;;
3405;SDS011;10008;48.682;9.016;2023-12-20T00:22:53;11.60;;;10.70;;
3405;SDS011;10008;48.682;9.016;2023-12-20T00:25:23;11.67;;;10.80;;
3405;SDS011;10008;48.682;9.016;2023-12-20T00:27:49;11.80;;;10.90;;
3405;SDS011;10008;48.682;9.016;2023-12-20T00:30:15;11.80;;;11.00;;
3405;SDS011;10008;48.682;9.016;2023-12-20T00:32:41;12.73;;;11.83;;
3405;SDS011;10008;48.682;9.016;2023-12-20T00:35:12;13.20;;;12.30;;
3405;SDS011;10008;48.682;9.016;2023-12-20T00:37:39;13.00;;;12.10;;
3405;SDS011;10008;48.682;9.016;2023-12-20T00:40:04;13.17;;;12.17;;
3405;SDS011;10008;48.682;9.016;2023-12-20T00:42:31;13.40;;;12.40;;
3405;SDS011;10008;48.682;9.016;2023-12-20T00:44:58;13.10;;;12.10;;
3405;SDS011;10008;48.682;9.016;2023-12-20T00:47:24;13.70;;;12.60;;
3405;SDS011;10008;48.682;9.016;2023-12-20T00:49:50;13.50;;;12.47;;
3405;SDS011;10008;48.682;9.016;2023-12-20T00:52:15;14.20;;;13.20;;
3405;SDS011;10008;48.682;9.016;2023-12-20T00:54:43;14.30;;;13.20;;
3405;SDS011;10008;48.682;9.016;2023-12-20T00:57:08;14.47;;;13.40;;
3405;SDS011;10008;48.682;9.016;2023-12-20T00:59:34;15.77;;;14.30;;
3405;SDS011;10008;48.682;9.016;2023-12-20T01:02:00;16.27;;;15.00;;
3405;SDS011;10008;48.682;9.016;2023-12-20T01:04:26;16.13;;;14.83;;
3405;SDS011;10008;48.682;9.016;2023-12-20T01:06:52;16.73;;;15.47;;
3405;SDS011;10008;48.682;9.016;2023-12-20T01:09:18;16.63;;;15.13;;
3405;SDS011;10008;48.682;9.016;2023-12-20T01:11:44;16.73;;;15.43;;
3405;SDS011;10008;48.682;9.016;2023-12-20T01:14:11;17.40;;;16.10;;
3405;SDS011;10008;48.682;9.016;2023-12-20T01:16:37;17.87;;;16.57;;
3405;SDS011;10008;48.682;9.016;2023-12-20T01:19:03;17.00;;;15.70;;
3405;SDS011;10008;48.682;9.016;2023-12-20T01:21:29;17.20;;;15.90;;
3405;SDS011;10008;48.682;9.016;2023-12-20T01:23:55;16.93;;;15.63;;
3405;SDS011;10008;48.682;9.016;2023-12-20T01:26:20;16.77;;;15.37;;
3405;SDS011;10008;48.682;9.016;2023-12-20T01:28:46;16.77;;;15.43;;
3405;SDS011;10008;48.682;9.016;2023-12-20T01:31:12;16.77;;;15.47;;
3405;SDS011;10008;48.682;9.016;2023-12-20T01:33:38;16.47;;;15.20;;
3405;SDS011;10008;48.682;9.016;2023-12-20T01:36:04;16.03;;;14.53;;
3405;SDS011;10008;48.682;9.016;2023-12-20T01:38:29;15.30;;;14.10;;
3405;SDS011;10008;48.682;9.016;2023-12-20T01:40:55;15.40;;;14.20;;
3405;SDS011;10008;48.682;9.016;2023-12-20T01:43:21;15.63;;;14.43;;
3405;SDS011;10008;48.682;9.016;2023-12-20T01:45:47;16.27;;;14.97;;
3405;SDS011;10008;48.682;9.016;2023-12-20T01:48:13;15.30;;;14.00;;
3405;SDS011;10008;48.682;9.016;2023-12-20T01:50:41;15.70;;;14.50;;
3405;SDS011;10008;48.682;9.016;2023-12-20T01:53:08;16.10;;;14.80;;
3405;SDS011;10008;48.682;9.016;2023-12-20T01:55:37;15.00;;;13.80;;
3405;SDS011;10008;48.682;9.016;2023-12-20T01:58:05;15.03;;;13.90;;
3405;SDS011;10008;48.682;9.016;2023-12-20T02:00:31;14.13;;;13.10;;
3405;SDS011;10008;48.682;9.016;2023-12-20T02:02:59;14.47;;;13.37;;
3405;SDS011;10008;48.682;9.016;2023-12-20T02:05:29;14.07;;;12.97;;
3405;SDS011;10008;48.682;9.016;2023-12-20T02:07:55;14.20;;;13.10;;
3405;SDS011;10008;48.682;9.016;2023-12-20T02:10:21;15.00;;;13.90;;
3405;SDS011;10008;48.682;9.016;2023-12-20T02:12:47;15.17;;;13.87;;
3405;SDS011;10008;48.682;9.016;2023-12-20T02:15:12;14.00;;;12.90;;
3405;SDS011;10008;48.682;9.016;2023-12-20T02:17:38;14.73;;;13.60;;
3405;SDS011;10008;48.682;9.016;2023-12-20T02:20:05;14.17;;;13.07;;
3405;SDS011;10008;48.682;9.016;2023-12-20T02:22:31;14.80;;;13.70;;
3405;SDS011;10008;48.682;9.016;2023-12-20T02:24:57;15.20;;;14.03;;
3405;SDS011;10008;48.682;9.016;2023-12-20T02:27:23;14.33;;;13.23;;
3405;SDS011;10008;48.682;9.016;2023-12-20T02:29:48;14.67;;;13.57;;
3405;SDS011;10008;48.682;9.016;2023-12-20T02:32:18;15.50;;;14.17;;
3405;SDS011;10008;48.682;9.016;2023-12-20T02:34:46;14.80;;;13.60;;
3405;SDS011;10008;48.682;9.016;2023-12-20T02:37:13;14.30;;;13.20;;
3405;SDS011;10008;48.682;9.016;2023-12-20T02:39:38;13.47;;;12.47;;
3405;SDS011;10008;48.682;9.016;2023-12-20T02:42:04;14.20;;;13.10;;
3405;SDS011;10008;48.682;9.016;2023-12-20T02:44:30;13.43;;;12.43;;
3405;SDS011;10008;48.682;9.016;2023-12-20T02:46:56;14.03;;;13.03;;
3405;SDS011;10008;48.682;9.016;2023-12-20T02:49:21;14.00;;;12.90;;
3405;SDS011;10008;48.682;9.016;2023-12-20T02:51:47;14.23;;;13.13;;
3405;SDS011;10008;48.682;9.016;2023-12-20T02:54:13;14.07;;;12.97;;
3405;SDS011;10008;48.682;9.016;2023-12-20T02:56:39;14.40;;;13.30;;
3405;SDS011;10008;48.682;9.016;2023-12-20T02:59:05;14.77;;;13.57;;
3405;SDS011;10008;48.682;9.016;2023-12-20T03:01:31;15.07;;;13.97;;
3405;SDS011;10008;48.682;9.016;2023-12-20T03:03:57;14.40;;;13.20;;
3405;SDS011;10008;48.682;9.016;2023-12-20T03:06:23;14.63;;;13.53;;
3405;SDS011;10008;48.682;9.016;2023-12-20T03:08:48;14.67;;;13.57;;
3405;SDS011;10008;48.682;9.016;2023-12-20T03:11:14;15.43;;;14.23;;
3405;SDS011;10008;48.682;9.016;2023-12-20T03:13:40;15.30;;;14.17;;
3405;SDS011;10008;48.682;9.016;2023-12-20T03:16:12;15.37;;;14.17;;
3405;SDS011;10008;48.682;9.016;2023-12-20T03:18:38;14.73;;;13.63;;
3405;SDS011;10008;48.682;9.016;2023-12-20T03:21:04;15.20;;;14.00;;
3405;SDS011;10008;48.682;9.016;2023-12-20T03:23:31;15.90;;;14.40;;
3405;SDS011;10008;48.682;9.016;2023-12-20T03:26:00;15.83;;;14.63;;
3405;SDS011;10008;48.682;9.016;2023-12-20T03:28:29;14.47;;;13.37;;
3405;SDS011;10008;48.682;9.016;2023-12-20T03:30:55;14.50;;;13.40;;
3405;SDS011;10008;48.682;9.016;2023-12-20T03:33:20;15.20;;;14.00;;
3405;SDS011;10008;48.682;9.016;2023-12-20T03:35:46;14.73;;;13.63;;
3405;SDS011;10008;48.682;9.016;2023-12-20T03:38:12;14.30;;;13.20;;
3405;SDS011;10008;48.682;9.016;2023-12-20T03:40:37;13.40;;;12.40;;
3405;SDS011;10008;48.682;9.016;2023-12-20T03:43:03;13.97;;;12.87;;
3405;SDS011;10008;48.682;9.016;2023-12-20T03:45:29;13.57;;;12.57;;
3405;SDS011;10008;48.682;9.016;2023-12-20T03:47:54;13.00;;;12.00;;
3405;SDS011;10008;48.682;9.016;2023-12-20T03:50:24;13.80;;;12.80;;
3405;SDS011;10008;48.682;9.016;2023-12-20T03:52:51;13.20;;;12.20;;
3405;SDS011;10008;48.682;9.016;2023-12-20T03:55:17;13.30;;;12.17;;
3405;SDS011;10008;48.682;9.016;2023-12-20T03:57:42;14.00;;;12.90;;
3405;SDS011;10008;48.682;9.016;2023-12-20T04:00:08;13.93;;;12.90;;
3405;SDS011;10008;48.682;9.016;2023-12-20T04:02:37;13.47;;;12.37;;
3405;SDS011;10008;48.682;9.016;2023-12-20T04:05:04;13.33;;;12.33;;
3405;SDS011;10008;48.682;9.016;2023-12-20T04:07:30;14.73;;;13.53;;
3405;SDS011;10008;48.682;9.016;2023-12-20T04:09:56;9.10;;;8.50;;
3405;SDS011;10008;48.682;9.016;2023-12-20T04:12:22;8.80;;;8.20;;
3405;SDS011;10008;48.682;9.016;2023-12-20T04:14:47;8.40;;;7.90;;
3405;SDS011;10008;48.682;9.016;2023-12-20T04:17:13;5.93;;;5.30;;
3405;SDS011;10008;48.682;9.016;2023-12-20T04:19:41;6.63;;;5.77;;
3405;SDS011;10008;48.682;9.016;2023-12-20T04:22:07;6.30;;;5.90;;
3405;SDS011;10008;48.682;9.016;2023-12-20T04:24:33;6.90;;;6.40;;
3405;SDS011;10008;48.682;9.016;2023-12-20T04:26:58;7.10;;;6.60;;
3405;SDS011;10008;48.682;9.016;2023-12-20T04:29:24;6.57;;;6.17;;
3405;SDS011;10008;48.682;9.016;2023-12-20T04:31:50;7.43;;;6.93;;
3405;SDS011;10008;48.682;9.016;2023-12-20T04:34:17;7.80;;;7.27;;
3405;SDS011;10008;48.682;9.016;2023-12-20T04:36:42;8.10;;;7.60;;
3405;SDS011;10008;48.682;9.016;2023-12-20T04:39:08;9.00;;;8.30;;
3405;SDS011;10008;48.682;9.016;2023-12-20T04:41:34;8.93;;;8.33;;
3405;SDS011;10008;48.682;9.016;2023-12-20T04:44:00;9.20;;;8.60;;
3405;SDS011;10008;48.682;9.016;2023-12-20T04:46:26;9.33;;;8.73;;
3405;SDS011;10008;48.682;9.016;2023-12-20T04:48:52;9.60;;;8.90;;
3405;SDS011;10008;48.682;9.016;2023-12-20T04:51:18;9.60;;;8.90;;
3405;SDS011;10008;48.682;9.016;2023-12-20T04:53:43;9.27;;;8.57;;
3405;SDS011;10008;48.682;9.016;2023-12-20T04:56:09;9.80;;;9.10;;
3405;SDS011;10008;48.682;9.016;2023-12-20T04:58:35;9.70;;;9.00;;
3405;SDS011;10008;48.682;9.016;2023-12-20T05:01:00;10.00;;;9.20;;
3405;SDS011;10008;48.682;9.016;2023-12-20T05:03:26;9.87;;;9.17;;
3405;SDS011;10008;48.682;9.016;2023-12-20T05:05:52;10.33;;;9.27;;
3405;SDS011;10008;48.682;9.016;2023-12-20T05:08:18;10.00;;;9.30;;
3405;SDS011;10008;48.682;9.016;2023-12-20T05:10:43;9.87;;;9.17;;
3405;SDS011;10008;48.682;9.016;2023-12-20T05:13:09;10.10;;;9.30;;
3405;SDS011;10008;48.682;9.016;2023-12-20T05:15:35;10.40;;;9.60;;
3405;SDS011;10008;48.682;9.016;2023-12-20T05:18:01;10.20;;;9.50;;
3405;SDS011;10008;48.682;9.016;2023-12-20T05:20:27;10.67;;;9.87;;
3405;SDS011;10008;48.682;9.016;2023-12-20T05:22:53;10.27;;;9.57;;
3405;SDS011;10008;48.682;9.016;2023-12-20T05:25:19;10.50;;;9.80;;
3405;SDS011;10008;48.682;9.016;2023-12-20T05:27:44;10.80;;;10.00;;
3405;SDS011;10008;48.682;9.016;2023-12-20T05:30:10;10.80;;;10.00;;
3405;SDS011;10008;48.682;9.016;2023-12-20T05:32:36;11.03;;;10.23;;
3405;SDS011;10008;48.682;9.016;2023-12-20T05:35:02;11.20;;;10.30;;
3405;SDS011;10008;48.682;9.016;2023-12-20T05:37:28;11.40;;;10.60;;
3405;SDS011;10008;48.682;9.016;2023-12-20T05:39:54;11.37;;;10.47;;
3405;SDS011;10008;48.682;9.016;2023-12-20T05:42:20;11.53;;;10.70;;
3405;SDS011;10008;48.682;9.016;2023-12-20T05:44:45;11.37;;;10.57;;
3405;SDS011;10008;48.682;9.016;2023-12-20T05:47:11;11.77;;;10.77;;
3405;SDS011;10008;48.682;9.016;2023-12-20T05:49:37;11.50;;;10.70;;
3405;SDS011;10008;48.682;9.016;2023-12-20T05:52:02;11.20;;;10.40;;
3405;SDS011;10008;48.682;9.016;2023-12-20T05:54:28;11.00;;;10.10;;
3405;SDS011;10008;48.682;9.016;2023-12-20T05:56:54;11.23;;;10.43;;
3405;SDS011;10008;48.682;9.016;2023-12-20T05:59:20;11.03;;;10.23;;
3405;SDS011;10008;48.682;9.016;2023-12-20T06:01:46;11.27;;;10.37;;
3405;SDS011;10008;48.682;9.016;2023-12-20T06:04:11;10.70;;;9.90;;
3405;SDS011;10008;48.682;9.016;2023-12-20T06:06:43;11.00;;;10.20;;
3405;SDS011;10008;48.682;9.016;2023-12-20T06:09:10;10.93;;;10.13;;
3405;SDS011;10008;48.682;9.016;2023-12-20T06:11:35;10.93;;;10.03;;
3405;SDS011;10008;48.682;9.016;2023-12-20T06:14:01;10.97;;;10.17;;
3405;SDS011;10008;48.682;9.016;2023-12-20T06:16:27;12.17;;;11.37;;
3405;SDS011;10008;48.682;9.016;2023-12-20T06:18:52;11.13;;;10.33;;
3405;SDS011;10008;48.682;9.016;2023-12-20T06:21:18;10.80;;;10.03;;
3405;SDS011;10008;48.682;9.016;2023-12-20T06:23:44;11.13;;;10.23;;
3405;SDS011;10008;48.682;9.016;2023-12-20T06:26:10;11.33;;;10.43;;
3405;SDS011;10008;48.682;9.016;2023-12-20T06:28:35;11.27;;;10.30;;
3405;SDS011;10008;48.682;9.016;2023-12-20T06:31:01;12.70;;;11.80;;
3405;SDS011;10008;48.682;9.016;2023-12-20T06:33:28;11.90;;;11.00;;
3405;SDS011;10008;48.682;9.016;2023-12-20T06:35:56;12.73;;;11.63;;
3405;SDS011;10008;48.682;9.016;2023-12-20T06:38:22;12.33;;;11.33;;
3405;SDS011;10008;48.682;9.016;2023-12-20T06:40:47;12.30;;;11.40;;
3405;SDS011;10008;48.682;9.016;2023-12-20T06:43:13;12.70;;;11.70;;
3405;SDS011;10008;48.682;9.016;2023-12-20T06:45:39;12.53;;;11.53;;
3405;SDS011;10008;48.682;9.016;2023-12-20T06:48:05;12.20;;;11.30;;
3405;SDS011;10008;48.682;9.016;2023-12-20T06:50:31;11.73;;;10.93;;
3405;SDS011;10008;48.682;9.016;2023-12-20T06:52:57;12.03;;;11.13;;
3405;SDS011;10008;48.682;9.016;2023-12-20T06:55:23;12.37;;;11.27;;
3405;SDS011;10008;48.682;9.016;2023-12-20T06:57:49;12.20;;;11.30;;
3405;SDS011;10008;48.682;9.016;2023-12-20T07:00:15;12.33;;;11.43;;
3405;SDS011;10008;48.682;9.016;2023-12-20T07:02:41;12.00;;;11.10;;
3405;SDS011;10008;48.682;9.016;2023-12-20T07:05:07;13.00;;;11.90;;
3405;SDS011;10008;48.682;9.016;2023-12-20T07:07:32;12.77;;;11.77;;
3405;SDS011;10008;48.682;9.016;2023-12-20T07:09:58;15.80;;;14.17;;
3405;SDS011;10008;48.682;9.016;2023-12-20T07:12:24;12.43;;;11.53;;
3405;SDS011;10008;48.682;9.016;2023-12-20T07:14:50;12.93;;;11.83;;
3405;SDS011;10008;48.682;9.016;2023-12-20T07:17:15;13.30;;;12.10;;
3405;SDS011;10008;48.682;9.016;2023-12-20T07:19:41;12.20;;;11.30;;
3405;SDS011;10008;48.682;9.016;2023-12-20T07:22:07;12.30;;;11.40;;
3405;SDS011;10008;48.682;9.016;2023-12-20T07:24:33;12.30;;;11.40;;
3405;SDS011;10008;48.682;9.016;2023-12-20T07:27:02;12.87;;;11.60;;
3405;SDS011;10008;48.682;9.016;2023-12-20T07:29:28;13.50;;;12.40;;
3405;SDS011;10008;48.682;9.016;2023-12-20T07:31:53;13.43;;;12.30;;
3405;SDS011;10008;48.682;9.016;2023-12-20T07:34:20;13.47;;;12.40;;
3405;SDS011;10008;48.682;9.016;2023-12-20T07:36:46;14.50;;;13.20;;
3405;SDS011;10008;48.682;9.016;2023-12-20T07:39:12;14.27;;;13.10;;
3405;SDS011;10008;48.682;9.016;2023-12-20T07:41:39;14.30;;;13.00;;
3405;SDS011;10008;48.682;9.016;2023-12-20T07:44:05;15.90;;;14.50;;
3405;SDS011;10008;48.682;9.016;2023-12-20T07:46:31;15.03;;;13.67;;
3405;SDS011;10008;48.682;9.016;2023-12-20T07:48:57;15.20;;;13.90;;
3405;SDS011;10008;48.682;9.016;2023-12-20T07:51:23;15.77;;;14.30;;
3405;SDS011;10008;48.682;9.016;2023-12-20T07:53:48;18.67;;;17.17;;
3405;SDS011;10008;48.682;9.016;2023-12-20T07:56:17;18.10;;;16.50;;
3405;SDS011;10008;48.682;9.016;2023-12-20T07:58:45;18.03;;;16.43;;
3405;SDS011;10008;48.682;9.016;2023-12-20T08:01:11;19.20;;;17.60;;
3405;SDS011;10008;48.682;9.016;2023-12-20T08:03:37;19.55;;;17.75;;
3405;SDS011;10008;48.682;9.016;2023-12-20T08:06:04;18.27;;;16.63;;
3405;SDS011;10008;48.682;9.016;2023-12-20T08:08:30;19.43;;;17.53;;
3405;SDS011;10008;48.682;9.016;2023-12-20T08:10:56;19.00;;;17.20;;
3405;SDS011;10008;48.682;9.016;2023-12-20T08:13:25;19.47;;;17.47;;
3405;SDS011;10008;48.682;9.016;2023-12-20T08:15:52;18.33;;;16.50;;
3405;SDS011;10008;48.682;9.016;2023-12-20T08:18:18;19.73;;;17.10;;
3405;SDS011;10008;48.682;9.016;2023-12-20T08:20:43;18.50;;;16.83;;
3405;SDS011;10008;48.682;9.016;2023-12-20T08:23:09;18.80;;;17.03;;
3405;SDS011;10008;48.682;9.016;2023-12-20T08:25:35;17.73;;;16.10;;
3405;SDS011;10008;48.682;9.016;2023-12-20T08:28:04;18.83;;;17.03;;
3405;SDS011;10008;48.682;9.016;2023-12-20T08:30:30;18.50;;;16.80;;
3405;SDS011;10008;48.682;9.016;2023-12-20T08:32:59;16.90;;;15.40;;
3405;SDS011;10008;48.682;9.016;2023-12-20T08:35:25;17.50;;;15.80;;
3405;SDS011;10008;48.682;9.016;2023-12-20T08:37:51;20.10;;;18.30;;
3405;SDS011;10008;48.682;9.016;2023-12-20T08:40:17;17.97;;;16.30;;
3405;SDS011;10008;48.682;9.016;2023-12-20T08:42:42;19.00;;;17.20;;
3405;SDS011;10008;48.682;9.016;2023-12-20T08:45:09;18.90;;;17.17;;
3405;SDS011;10008;48.682;9.016;2023-12-20T08:47:35;18.00;;;16.30;;
3405;SDS011;10008;48.682;9.016;2023-12-20T08:50:02;18.37;;;16.67;;
3405;SDS011;10008;48.682;9.016;2023-12-20T08:52:28;19.03;;;17.20;;
3405;SDS011;10008;48.682;9.016;2023-12-20T08:54:54;18.23;;;16.53;;
3405;SDS011;10008;48.682;9.016;2023-12-20T08:57:20;19.00;;;17.30;;
3405;SDS011;10008;48.682;9.016;2023-12-20T08:59:48;17.60;;;16.10;;
3405;SDS011;10008;48.682;9.016;2023-12-20T09:02:14;17.07;;;15.47;;
3405;SDS011;10008;48.682;9.016;2023-12-20T09:04:41;16.80;;;15.40;;
3405;SDS011;10008;48.682;9.016;2023-12-20T09:07:07;15.80;;;14.50;;
3405;SDS011;10008;48.682;9.016;2023-12-20T09:09:52;17.17;;;15.67;;
3405;SDS011;10008;48.682;9.016;2023-12-20T09:12:19;16.47;;;14.97;;
3405;SDS011;10008;48.682;9.016;2023-12-20T09:14:48;16.83;;;15.20;;
3405;SDS011;10008;48.682;9.016;2023-12-20T09:17:15;16.37;;;15.00;;
3405;SDS011;10008;48.682;9.016;2023-12-20T09:19:41;16.60;;;15.00;;
3405;SDS011;10008;48.682;9.016;2023-12-20T09:22:09;16.63;;;14.90;;
3405;SDS011;10008;48.682;9.016;2023-12-20T09:24:35;17.00;;;14.70;;
3405;SDS011;10008;48.682;9.016;2023-12-20T09:27:01;16.40;;;14.90;;
3405;SDS011;10008;48.682;9.016;2023-12-20T09:29:26;15.80;;;14.30;;
3405;SDS011;10008;48.682;9.016;2023-12-20T09:31:52;15.60;;;14.20;;
3405;SDS011;10008;48.682;9.016;2023-12-20T09:34:18;16.17;;;14.60;;
3405;SDS011;10008;48.682;9.016;2023-12-20T09:36:43;15.97;;;14.47;;
3405;SDS011;10008;48.682;9.016;2023-12-20T09:39:18;16.90;;;15.17;;
3405;SDS011;10008;48.682;9.016;2023-12-20T09:41:46;15.40;;;14.10;;
3405;SDS011;10008;48.682;9.016;2023-12-20T09:44:26;15.20;;;13.90;;
3405;SDS011;10008;48.682;9.016;2023-12-20T09:46:52;15.67;;;14.03;;
3405;SDS011;10008;48.682;9.016;2023-12-20T09:49:19;15.67;;;14.20;;
3405;SDS011;10008;48.682;9.016;2023-12-20T09:51:46;15.60;;;14.00;;
3405;SDS011;10008;48.682;9.016;2023-12-20T09:54:15;14.10;;;12.90;;
3405;SDS011;10008;48.682;9.016;2023-12-20T09:56:43;12.60;;;11.60;;
3405;SDS011;10008;48.682;9.016;2023-12-20T09:59:12;13.33;;;12.23;;
3405;SDS011;10008;48.682;9.016;2023-12-20T10:01:41;13.60;;;12.40;;
3405;SDS011;10008;48.682;9.016;2023-12-20T10:04:09;12.83;;;11.60;;
3405;SDS011;10008;48.682;9.016;2023-12-20T10:06:43;12.00;;;10.90;;
3405;SDS011;10008;48.682;9.016;2023-12-20T10:09:10;12.77;;;11.47;;
3405;SDS011;10008;48.682;9.016;2023-12-20T10:11:36;13.77;;;11.30;;
3405;SDS011;10008;48.682;9.016;2023-12-20T10:14:03;12.20;;;11.03;;
3405;SDS011;10008;48.682;9.016;2023-12-20T10:16:30;12.43;;;11.30;;
3405;SDS011;10008;48.682;9.016;2023-12-20T10:18:56;12.40;;;11.07;;
3405;SDS011;10008;48.682;9.016;2023-12-20T10:21:22;11.97;;;10.90;;
3405;SDS011;10008;48.682;9.016;2023-12-20T10:23:49;11.73;;;10.63;;
3405;SDS011;10008;48.682;9.016;2023-12-20T10:26:22;11.93;;;10.93;;
3405;SDS011;10008;48.682;9.016;2023-12-20T10:28:53;12.47;;;11.33;;
3405;SDS011;10008;48.682;9.016;2023-12-20T10:31:29;12.50;;;11.40;;
3405;SDS011;10008;48.682;9.016;2023-12-20T10:33:59;13.03;;;11.67;;
3405;SDS011;10008;48.682;9.016;2023-12-20T10:36:26;12.10;;;10.90;;
3405;SDS011;10008;48.682;9.016;2023-12-20T10:38:53;13.55;;;12.25;;
3405;SDS011;10008;48.682;9.016;2023-12-20T10:41:24;12.00;;;11.00;;
3405;SDS011;10008;48.682;9.016;2023-12-20T10:43:53;12.60;;;11.50;;
3405;SDS011;10008;48.682;9.016;2023-12-20T10:46:23;13.33;;;11.90;;
3405;SDS011;10008;48.682;9.016;2023-12-20T10:48:52;12.20;;;11.20;;
3405;SDS011;10008;48.682;9.016;2023-12-20T10:51:19;12.80;;;11.60;;
3405;SDS011;10008;48.682;9.016;2023-12-20T10:53:47;13.73;;;11.73;;
3405;SDS011;10008;48.682;9.016;2023-12-20T10:56:15;12.20;;;11.10;;
3405;SDS011;10008;48.682;9.016;2023-12-20T10:58:45;12.60;;;11.50;;
3405;SDS011;10008;48.682;9.016;2023-12-20T11:01:14;13.00;;;10.53;;
3405;SDS011;10008;48.682;9.016;2023-12-20T11:03:53;13.13;;;11.60;;
3405;SDS011;10008;48.682;9.016;2023-12-20T11:09:08;11.90;;;10.80;;
3405;SDS011;10008;48.682;9.016;2023-12-20T11:17:11;13.40;;;11.17;;
3405;SDS011;10008;48.682;9.016;2023-12-20T11:22:26;12.77;;;11.57;;
3405;SDS011;10008;48.682;9.016;2023-12-20T11:24:57;11.90;;;10.83;;
3405;SDS011;10008;48.682;9.016;2023-12-20T11:27:31;11.97;;;10.77;;
3405;SDS011;10008;48.682;9.016;2023-12-20T11:29:58;12.20;;;11.10;;
3405;SDS011;10008;48.682;9.016;2023-12-20T11:34:59;11.80;;;10.90;;
3405;SDS011;10008;48.682;9.016;2023-12-20T11:37:45;11.80;;;10.60;;
3405;SDS011;10008;48.682;9.016;2023-12-20T11:40:17;11.50;;;10.40;;
3405;SDS011;10008;48.682;9.016;2023-12-20T11:42:44;12.40;;;11.20;;
3405;SDS011;10008;48.682;9.016;2023-12-20T11:45:14;12.13;;;10.97;;
3405;SDS011;10008;48.682;9.016;2023-12-20T11:47:45;13.13;;;10.97;;
3405;SDS011;10008;48.682;9.016;2023-12-20T11:50:12;12.23;;;10.93;;
3405;SDS011;10008;48.682;9.016;2023-12-20T11:52:38;11.70;;;10.60;;
3405;SDS011;10008;48.682;9.016;2023-12-20T11:55:03;11.80;;;10.63;;
3405;SDS011;10008;48.682;9.016;2023-12-20T11:57:30;11.83;;;10.73;;
3405;SDS011;10008;48.682;9.016;2023-12-20T11:59:56;11.30;;;10.30;;
3405;SDS011;10008;48.682;9.016;2023-12-20T12:02:22;11.50;;;10.40;;
3405;SDS011;10008;48.682;9.016;2023-12-20T12:04:52;11.63;;;10.53;;
3405;SDS011;10008;48.682;9.016;2023-12-20T12:07:17;11.57;;;10.47;;
3405;SDS011;10008;48.682;9.016;2023-12-20T12:09:43;11.67;;;10.60;;
3405;SDS011;10008;48.682;9.016;2023-12-20T12:12:10;11.83;;;10.83;;
3405;SDS011;10008;48.682;9.016;2023-12-20T12:14:38;11.30;;;10.30;;
3405;SDS011;10008;48.682;9.016;2023-12-20T12:17:09;13.93;;;10.67;;
3405;SDS011;10008;48.682;9.016;2023-12-20T12:19:42;11.70;;;10.70;;
3405;SDS011;10008;48.682;9.016;2023-12-20T12:22:15;11.07;;;9.97;;
3405;SDS011;10008;48.682;9.016;2023-12-20T12:24:44;11.93;;;10.83;;
3405;SDS011;10008;48.682;9.016;2023-12-20T12:27:12;10.97;;;9.97;;
3405;SDS011;10008;48.682;9.016;2023-12-20T12:29:38;13.13;;;10.90;;
3405;SDS011;10008;48.682;9.016;2023-12-20T12:32:05;11.97;;;10.83;;
3405;SDS011;10008;48.682;9.016;2023-12-20T12:34:34;11.63;;;10.53;;
3405;SDS011;10008;48.682;9.016;2023-12-20T12:37:01;11.23;;;10.30;;
3405;SDS011;10008;48.682;9.016;2023-12-20T12:39:27;12.60;;;11.40;;
3405;SDS011;10008;48.682;9.016;2023-12-20T12:41:55;15.07;;;10.90;;
3405;SDS011;10008;48.682;9.016;2023-12-20T12:44:20;11.43;;;10.30;;
3405;SDS011;10008;48.682;9.016;2023-12-20T12:46:48;12.77;;;10.53;;
3405;SDS011;10008;48.682;9.016;2023-12-20T12:49:21;11.40;;;10.30;;
3405;SDS011;10008;48.682;9.016;2023-12-20T12:51:47;12.70;;;10.70;;
3405;SDS011;10008;48.682;9.016;2023-12-20T12:54:13;11.53;;;10.43;;
3405;SDS011;10008;48.682;9.016;2023-12-20T12:56:41;11.87;;;10.77;;
3405;SDS011;10008;48.682;9.016;2023-12-20T12:59:07;10.97;;;10.07;;
3405;SDS011;10008;48.682;9.016;2023-12-20T13:01:33;11.87;;;9.97;;
3405;SDS011;10008;48.682;9.016;2023-12-20T13:03:59;10.80;;;9.90;;
3405;SDS011;10008;48.682;9.016;2023-12-20T13:06:28;14.87;;;10.97;;
3405;SDS011;10008;48.682;9.016;2023-12-20T13:08:53;11.17;;;10.17;;
3405;SDS011;10008;48.682;9.016;2023-12-20T13:11:20;12.23;;;10.97;;
3405;SDS011;10008;48.682;9.016;2023-12-20T13:13:46;11.17;;;10.17;;
3405;SDS011;10008;48.682;9.016;2023-12-20T13:16:12;11.20;;;10.30;;
3405;SDS011;10008;48.682;9.016;2023-12-20T13:18:38;12.30;;;11.00;;
3405;SDS011;10008;48.682;9.016;2023-12-20T13:21:07;10.70;;;9.80;;
3405;SDS011;10008;48.682;9.016;2023-12-20T13:23:34;10.90;;;9.90;;
3405;SDS011;10008;48.682;9.016;2023-12-20T13:25:59;10.70;;;9.80;;
3405;SDS011;10008;48.682;9.016;2023-12-20T13:28:25;11.03;;;10.03;;
3405;SDS011;10008;48.682;9.016;2023-12-20T13:30:51;11.90;;;9.93;;
3405;SDS011;10008;48.682;9.016;2023-12-20T13:33:16;10.40;;;9.50;;
3405;SDS011;10008;48.682;9.016;2023-12-20T13:35:42;11.23;;;10.13;;
3405;SDS011;10008;48.682;9.016;2023-12-20T13:38:08;10.53;;;9.43;;
3405;SDS011;10008;48.682;9.016;2023-12-20T13:40:34;10.00;;;9.20;;
3405;SDS011;10008;48.682;9.016;2023-12-20T13:42:59;10.43;;;9.47;;
3405;SDS011;10008;48.682;9.016;2023-12-20T13:45:25;10.10;;;9.20;;
3405;SDS011;10008;48.682;9.016;2023-12-20T13:47:51;10.80;;;9.80;;
3405;SDS011;10008;48.682;9.016;2023-12-20T13:50:16;11.57;;;10.30;;
3405;SDS011;10008;48.682;9.016;2023-12-20T13:52:42;11.53;;;10.43;;
3405;SDS011;10008;48.682;9.016;2023-12-20T13:55:09;14.03;;;10.70;;
3405;SDS011;10008;48.682;9.016;2023-12-20T13:57:35;11.07;;;9.97;;
3405;SDS011;10008;48.682;9.016;2023-12-20T14:00:03;11.60;;;10.60;;
3405;SDS011;10008;48.682;9.016;2023-12-20T14:02:32;11.40;;;10.30;;
3405;SDS011;10008;48.682;9.016;2023-12-20T14:04:58;11.37;;;10.37;;
3405;SDS011;10008;48.682;9.016;2023-12-20T14:07:23;10.60;;;9.67;;
3405;SDS011;10008;48.682;9.016;2023-12-20T14:09:49;11.53;;;9.80;;
3405;SDS011;10008;48.682;9.016;2023-12-20T14:12:15;11.13;;;10.13;;
3405;SDS011;10008;48.682;9.016;2023-12-20T14:14:41;10.87;;;9.87;;
3405;SDS011;10008;48.682;9.016;2023-12-20T14:17:06;10.67;;;9.77;;
3405;SDS011;10008;48.682;9.016;2023-12-20T14:19:32;11.07;;;10.10;;
3405;SDS011;10008;48.682;9.016;2023-12-20T14:21:58;10.70;;;9.80;;
3405;SDS011;10008;48.682;9.016;2023-12-20T14:24:28;11.30;;;10.10;;
3405;SDS011;10008;48.682;9.016;2023-12-20T14:26:54;12.30;;;11.00;;
3405;SDS011;10008;48.682;9.016;2023-12-20T14:29:19;10.80;;;10.00;;
3405;SDS011;10008;48.682;9.016;2023-12-20T14:31:45;10.20;;;9.50;;
3405;SDS011;10008;48.682;9.016;2023-12-20T14:34:11;11.67;;;10.57;;
3405;SDS011;10008;48.682;9.016;2023-12-20T14:36:37;12.10;;;11.03;;
3405;SDS011;10008;48.682;9.016;2023-12-20T14:39:03;11.43;;;10.40;;
3405;SDS011;10008;48.682;9.016;2023-12-20T14:41:29;11.47;;;10.47;;
3405;SDS011;10008;48.682;9.016;2023-12-20T14:43:55;11.03;;;10.13;;
3405;SDS011;10008;48.682;9.016;2023-12-20T14:46:21;11.70;;;10.70;;
3405;SDS011;10008;48.682;9.016;2023-12-20T14:48:47;11.13;;;10.13;;